Terminal Aerodrome Forecast
Issued by NWS Norman, OK

Home | Current Version | Previous Version | Text Only | Print | Product List | Glossary On
Versions: 1 2 3 4 5 6 7 8 9 10 11 12 13 14 15 16 17 18 19 20 21 22 23 24 25 26
000
FTUS44 KOUN 062320
TAFSPS
TAF
KSPS 062320Z 0700/0724 18017G24KT P6SM SCT050
     FM070100 17012KT P6SM FEW050 BKN250
     FM070600 03010G16KT P6SM VCSH BKN020
     FM070800 VRB10G15KT 6SM TSRA BR OVC008CB
     FM071200 17010KT 6SM -SHRA BR OVC010
     FM071700 08010KT 4SM +SHRA OVC006=

USA.gov is the U.S. government's official web portal to all federal, state and local government web resources and services.